Terminal Aerodrome Forecast
Issued by NWS Tuscon, AZ

Home | Current Version | Previous Version | Text Only | Print | Product List | Glossary On
Versions: 1 2 3 4 5 6 7 8 9 10 11 12 13
000
FTUS45 KTWC 181100
TAFDUG
TAF
KDUG 181126Z 1812/1912 14005KT P6SM FEW150 OVC250
     FM181900 21017G26KT P6SM SCT100 OVC250
     FM190300 20012KT P6SM BKN080 BKN200
     FM190600 02006KT P6SM BKN060 BKN200=

USA.gov is the U.S. government's official web portal to all federal, state and local government web resources and services.